Time;durP1;ratioP1;P1;durP2;ratioP2;P2;SDS_P1;SDS_P2;PMS_P1;PMS_P2;Temp;Humidity;BMP_temperature;BMP_pressure;BME280_temperature;BME280_humidity;BME280_pressure;Samples;Min_cycle;Max_cycle;Signal;HPM_P1;HPM_P2
2023/01/07 00:01:23;;;;;;;;;3.00;3.00;;;;;;;;5079809;28;45491;-68
2023/01/07 00:03:49;;;;;;;;;5.25;4.00;;;;;;;;5079697;28;45391;-69
2023/01/07 00:06:16;;;;;;;;;3.25;3.25;;;;;;;;5079427;27;45708;-69
2023/01/07 00:08:43;;;;;;;;;2.75;2.75;;;;;;;;5079398;28;45580;-68
2023/01/07 00:11:09;;;;;;;;;3.00;3.00;;;;;;;;5079511;27;45263;-68
2023/01/07 00:13:35;;;;;;;;;7.00;4.00;;;;;;;;5079582;27;45470;-68
2023/01/07 00:16:04;;;;;;;;;5.75;4.00;;;;;;;;5079295;27;45742;-68
2023/01/07 00:18:29;;;;;;;;;3.00;3.00;;;;;;;;5079192;27;45399;-67
2023/01/07 00:20:58;;;;;;;;;5.50;3.00;;;;;;;;5079123;28;45723;-67
2023/01/07 00:23:25;;;;;;;;;6.00;3.00;;;;;;;;5079287;28;45694;-69
2023/01/07 00:25:51;;;;;;;;;2.75;2.75;;;;;;;;5079289;28;45474;-69
2023/01/07 00:28:16;;;;;;;;;3.25;3.25;;;;;;;;5079149;27;45384;-69
2023/01/07 00:30:41;;;;;;;;;4.25;4.25;;;;;;;;5078011;27;45507;-70
2023/01/07 00:33:08;;;;;;;;;4.25;3.50;;;;;;;;5079520;28;45472;-69
2023/01/07 00:35:35;;;;;;;;;5.00;5.00;;;;;;;;5077452;28;45454;-69
2023/01/07 00:38:01;;;;;;;;;4.75;4.75;;;;;;;;5078934;27;45454;-69
2023/01/07 00:40:26;;;;;;;;;6.00;2.00;;;;;;;;5079274;28;46073;-69
2023/01/07 00:42:55;;;;;;;;;6.25;4.00;;;;;;;;5078517;27;45392;-69
2023/01/07 00:45:21;;;;;;;;;4.25;4.25;;;;;;;;5079014;28;46664;-70
2023/01/07 00:47:47;;;;;;;;;4.00;4.00;;;;;;;;5079235;28;45310;-70
2023/01/07 00:50:12;;;;;;;;;7.75;4.00;;;;;;;;5076682;27;45481;-70
2023/01/07 00:52:37;;;;;;;;;9.00;4.25;;;;;;;;5059705;28;45330;-70
2023/01/07 00:55:03;;;;;;;;;3.50;3.25;;;;;;;;5058899;28;45467;-71
2023/01/07 00:57:28;;;;;;;;;4.75;4.25;;;;;;;;5058795;28;45443;-70
2023/01/07 00:59:53;;;;;;;;;6.00;6.00;;;;;;;;5062838;28;45527;-70
2023/01/07 01:02:18;;;;;;;;;6.00;4.75;;;;;;;;5071629;27;45502;-69
2023/01/07 01:04:44;;;;;;;;;5.25;5.25;;;;;;;;5062555;27;46732;-70
2023/01/07 01:07:09;;;;;;;;;6.25;4.00;;;;;;;;5065523;27;45474;-70
2023/01/07 01:09:34;;;;;;;;;8.00;6.00;;;;;;;;5064456;28;45312;-70
2023/01/07 01:11:59;;;;;;;;;6.25;5.75;;;;;;;;5059482;28;45316;-70
2023/01/07 01:14:25;;;;;;;;;5.75;4.75;;;;;;;;5073508;28;45642;-72
2023/01/07 01:16:50;;;;;;;;;6.00;6.00;;;;;;;;5068172;28;45427;-71
2023/01/07 01:19:15;;;;;;;;;4.00;4.00;;;;;;;;5078578;27;45661;-70
2023/01/07 01:21:40;;;;;;;;;6.25;3.75;;;;;;;;5074527;28;45511;-70
2023/01/07 01:24:06;;;;;;;;;6.25;5.50;;;;;;;;5058186;28;45427;-70
2023/01/07 01:26:31;;;;;;;;;5.75;5.75;;;;;;;;5070849;28;45423;-70
2023/01/07 01:28:56;;;;;;;;;7.00;7.00;;;;;;;;5078944;28;45376;-71
2023/01/07 01:31:21;;;;;;;;;5.25;5.25;;;;;;;;5073675;27;45442;-71
2023/01/07 01:33:47;;;;;;;;;4.25;3.25;;;;;;;;5062171;27;46609;-71
2023/01/07 01:36:12;;;;;;;;;5.75;5.00;;;;;;;;5058621;28;45498;-69
2023/01/07 01:38:37;;;;;;;;;6.75;5.00;;;;;;;;5058474;28;45408;-69
2023/01/07 01:41:03;;;;;;;;;6.50;5.25;;;;;;;;5057611;28;45482;-71
2023/01/07 01:43:35;;;;;;;;;4.50;4.50;;;;;;;;5058170;28;47509;-70
2023/01/07 01:46:10;;;;;;;;;5.75;4.75;;;;;;;;5058644;28;45332;-69
2023/01/07 01:48:37;;;;;;;;;5.75;5.50;;;;;;;;5059098;28;45301;-70
2023/01/07 01:51:02;;;;;;;;;6.25;4.50;;;;;;;;5058297;28;45394;-70
2023/01/07 01:53:29;;;;;;;;;8.00;7.00;;;;;;;;5058633;28;46234;-70
2023/01/07 01:55:56;;;;;;;;;5.00;5.00;;;;;;;;5057955;28;45393;-69
2023/01/07 01:58:26;;;;;;;;;12.67;7.33;;;;;;;;5068637;28;45450;-70
2023/01/07 02:00:52;;;;;;;;;6.00;6.00;;;;;;;;5058542;28;45310;-70
2023/01/07 02:03:18;;;;;;;;;7.00;5.00;;;;;;;;5065185;28;45618;-70
2023/01/07 02:05:44;;;;;;;;;8.75;6.25;;;;;;;;5069724;28;45798;-70
2023/01/07 02:08:10;;;;;;;;;7.00;5.25;;;;;;;;5057299;28;45425;-70
2023/01/07 02:10:36;;;;;;;;;7.75;7.50;;;;;;;;5057981;28;45459;-70
2023/01/07 02:13:10;;;;;;;;;6.00;6.00;;;;;;;;5067786;28;46567;-70
2023/01/07 02:15:54;;;;;;;;;6.50;5.00;;;;;;;;5075183;28;45375;-71
2023/01/07 02:18:31;;;;;;;;;7.25;7.25;;;;;;;;5077834;27;45300;-71
2023/01/07 02:21:00;;;;;;;;;9.00;7.25;;;;;;;;5078094;28;45366;-71
2023/01/07 02:23:25;;;;;;;;;5.75;5.75;;;;;;;;5078114;28;46500;-70
2023/01/07 02:25:56;;;;;;;;;7.00;5.00;;;;;;;;5078114;28;45399;-70
2023/01/07 02:28:21;;;;;;;;;6.50;6.50;;;;;;;;5078173;27;45311;-71
2023/01/07 02:30:46;;;;;;;;;6.25;6.25;;;;;;;;5078024;27;45724;-70
2023/01/07 02:33:25;;;;;;;;;8.00;5.00;;;;;;;;5076924;27;46732;-70
2023/01/07 02:36:05;;;;;;;;;11.75;6.25;;;;;;;;5077529;28;45308;-70
2023/01/07 02:38:33;;;;;;;;;8.00;6.75;;;;;;;;5078042;28;45331;-70
2023/01/07 02:41:10;;;;;;;;;7.50;6.00;;;;;;;;5078322;28;45368;-70
2023/01/07 02:43:42;;;;;;;;;6.25;5.75;;;;;;;;5077637;28;47499;-69
2023/01/07 02:46:09;;;;;;;;;7.00;7.00;;;;;;;;5077666;28;45308;-70
2023/01/07 02:48:35;;;;;;;;;8.25;6.00;;;;;;;;5076892;27;45316;-70
2023/01/07 02:51:00;;;;;;;;;7.50;6.00;;;;;;;;5077227;28;45439;-70
2023/01/07 02:53:25;;;;;;;;;5.50;5.50;;;;;;;;5077313;28;45461;-70
2023/01/07 02:56:05;;;;;;;;;7.25;6.00;;;;;;;;5077199;28;45486;-70
2023/01/07 02:58:45;;;;;;;;;7.75;7.00;;;;;;;;5077818;28;45375;-69
2023/01/07 03:01:22;;;;;;;;;7.50;5.00;;;;;;;;5077795;28;45552;-69
2023/01/07 03:03:59;;;;;;;;;10.25;8.25;;;;;;;;5076009;27;46438;-70
2023/01/07 03:06:27;;;;;;;;;8.75;6.50;;;;;;;;5077445;28;45471;-70
2023/01/07 03:08:57;;;;;;;;;8.50;6.75;;;;;;;;5077284;28;45367;-70
2023/01/07 03:11:25;;;;;;;;;9.00;8.00;;;;;;;;5077543;28;45402;-70
2023/01/07 03:14:02;;;;;;;;;7.00;7.00;;;;;;;;5077380;28;46742;-70
2023/01/07 03:16:37;;;;;;;;;7.75;6.00;;;;;;;;5077144;28;45492;-70
2023/01/07 03:19:05;;;;;;;;;6.50;5.00;;;;;;;;5077383;28;45368;-70
2023/01/07 03:21:32;;;;;;;;;7.50;7.00;;;;;;;;5076498;27;45515;-71
2023/01/07 03:23:58;;;;;;;;;6.50;5.50;;;;;;;;5076919;28;46549;-70
2023/01/07 03:26:25;;;;;;;;;8.50;8.00;;;;;;;;5069411;28;45671;-70
2023/01/07 03:28:51;;;;;;;;;7.50;7.00;;;;;;;;5067251;28;45464;-70
2023/01/07 03:31:18;;;;;;;;;8.00;6.25;;;;;;;;5057659;28;45228;-70
2023/01/07 03:33:51;;;;;;;;;8.75;7.00;;;;;;;;5056701;28;45575;-70
2023/01/07 03:36:19;;;;;;;;;10.50;9.25;;;;;;;;5071974;27;45493;-70
2023/01/07 03:38:45;;;;;;;;;9.50;7.25;;;;;;;;5076925;28;45268;-69
2023/01/07 03:42:38;;;;;;;;;7.75;7.00;;;;;;;;5077168;27;45530;-70
2023/01/07 03:43:56;;;;;;;;;9.50;8.50;;;;;;;;5076863;28;45590;-70
2023/01/07 03:46:21;;;;;;;;;7.00;3.75;;;;;;;;5077039;28;45541;-70
2023/01/07 03:48:46;;;;;;;;;9.50;6.75;;;;;;;;5076900;28;45544;-70
2023/01/07 03:51:11;;;;;;;;;6.00;6.00;;;;;;;;5077408;28;45468;-70
2023/01/07 03:53:36;;;;;;;;;11.50;7.00;;;;;;;;5075717;27;46469;-70
2023/01/07 03:56:02;;;;;;;;;6.75;6.75;;;;;;;;5076743;28;45236;-69
2023/01/07 03:58:27;;;;;;;;;9.25;6.75;;;;;;;;5076933;28;45316;-70
2023/01/07 04:00:53;;;;;;;;;7.00;5.75;;;;;;;;5077101;28;45336;-69
2023/01/07 04:03:18;;;;;;;;;7.00;4.25;;;;;;;;5076542;28;45309;-69
2023/01/07 04:05:43;;;;;;;;;5.75;5.75;;;;;;;;5076703;28;45550;-69
2023/01/07 04:08:09;;;;;;;;;7.50;5.75;;;;;;;;5076535;28;45524;-69
2023/01/07 04:10:34;;;;;;;;;9.00;6.25;;;;;;;;5076404;27;45309;-70
2023/01/07 04:12:59;;;;;;;;;6.00;5.00;;;;;;;;5076053;27;46995;-69
2023/01/07 04:15:24;;;;;;;;;5.25;4.00;;;;;;;;5075648;27;45333;-70
2023/01/07 04:17:49;;;;;;;;;6.00;4.25;;;;;;;;5076553;28;45781;-70
2023/01/07 04:20:15;;;;;;;;;4.25;3.00;;;;;;;;5076750;28;45339;-70
2023/01/07 04:22:40;;;;;;;;;4.00;3.25;;;;;;;;5076365;28;45458;-70
2023/01/07 04:25:05;;;;;;;;;4.00;4.00;;;;;;;;5075991;28;45384;-69
2023/01/07 04:27:32;;;;;;;;;6.75;5.00;;;;;;;;5076626;28;45316;-70
2023/01/07 04:29:57;;;;;;;;;4.75;4.75;;;;;;;;5076510;28;45213;-69
2023/01/07 04:32:22;;;;;;;;;4.50;4.50;;;;;;;;5070845;27;45591;-70
2023/01/07 04:34:47;;;;;;;;;6.00;5.00;;;;;;;;5059670;28;45560;-70
2023/01/07 04:37:13;;;;;;;;;6.25;5.00;;;;;;;;5059567;28;45368;-69
2023/01/07 04:39:38;;;;;;;;;4.00;4.00;;;;;;;;5061081;27;45472;-69
2023/01/07 04:42:03;;;;;;;;;4.00;4.00;;;;;;;;5079600;28;46297;-69
2023/01/07 04:44:28;;;;;;;;;4.75;4.75;;;;;;;;5079798;27;45422;-70
2023/01/07 04:46:53;;;;;;;;;4.00;4.00;;;;;;;;5079645;27;45297;-69
2023/01/07 04:49:19;;;;;;;;;4.00;4.00;;;;;;;;5079828;28;45444;-69
2023/01/07 04:51:44;;;;;;;;;4.00;4.00;;;;;;;;5079620;28;46564;-70
2023/01/07 04:54:09;;;;;;;;;3.25;3.25;;;;;;;;5079172;28;45315;-70
2023/01/07 04:56:34;;;;;;;;;4.25;2.75;;;;;;;;5073662;27;45584;-70
2023/01/07 04:59:00;;;;;;;;;3.00;3.00;;;;;;;;5072231;28;45294;-69
2023/01/07 05:01:25;;;;;;;;;3.00;3.00;;;;;;;;5079215;27;45878;-71
2023/01/07 05:03:50;;;;;;;;;4.00;3.00;;;;;;;;5079421;28;45284;-71
2023/01/07 05:06:15;;;;;;;;;2.00;2.00;;;;;;;;5079625;28;45315;-71
2023/01/07 05:08:40;;;;;;;;;3.00;2.75;;;;;;;;5079315;28;45425;-70
2023/01/07 05:11:06;;;;;;;;;2.75;2.00;;;;;;;;5078998;28;45463;-71
2023/01/07 05:13:34;;;;;;;;;2.25;2.00;;;;;;;;5079013;27;45432;-71
2023/01/07 05:15:59;;;;;;;;;2.00;2.00;;;;;;;;5078755;28;45441;-71
2023/01/07 05:18:24;;;;;;;;;2.00;2.00;;;;;;;;5079510;28;45623;-71
2023/01/07 05:20:50;;;;;;;;;4.75;3.00;;;;;;;;5078740;27;45328;-71
2023/01/07 05:23:15;;;;;;;;;1.00;1.00;;;;;;;;5078709;28;45467;-71
2023/01/07 05:25:40;;;;;;;;;1.00;1.00;;;;;;;;5079139;27;45525;-71
2023/01/07 05:28:06;;;;;;;;;2.25;1.75;;;;;;;;5079501;28;45376;-70
2023/01/07 05:30:31;;;;;;;;;2.50;2.50;;;;;;;;5077187;27;46360;-72
2023/01/07 05:32:56;;;;;;;;;1.75;1.75;;;;;;;;5078853;28;45301;-72
2023/01/07 05:35:21;;;;;;;;;2.00;2.00;;;;;;;;5078892;27;45408;-71
2023/01/07 05:37:46;;;;;;;;;2.75;2.75;;;;;;;;5079174;27;45355;-71
2023/01/07 05:40:12;;;;;;;;;2.00;2.00;;;;;;;;5078677;28;45408;-71
2023/01/07 05:42:37;;;;;;;;;1.00;1.00;;;;;;;;5078400;28;45214;-71
2023/01/07 05:45:03;;;;;;;;;2.00;2.00;;;;;;;;5077859;27;45467;-71
2023/01/07 05:47:28;;;;;;;;;2.00;2.00;;;;;;;;5077715;27;45383;-71
2023/01/07 05:49:53;;;;;;;;;1.50;1.50;;;;;;;;5077127;28;46191;-71
2023/01/07 05:52:18;;;;;;;;;2.00;2.00;;;;;;;;5078596;28;45827;-71
2023/01/07 05:54:44;;;;;;;;;1.50;1.50;;;;;;;;5078385;28;45278;-71
2023/01/07 05:57:10;;;;;;;;;3.50;2.00;;;;;;;;5078842;28;45379;-71
2023/01/07 05:59:35;;;;;;;;;1.50;1.25;;;;;;;;5078055;27;46229;-71
2023/01/07 06:02:00;;;;;;;;;1.00;1.00;;;;;;;;5060333;28;45402;-71
2023/01/07 06:04:26;;;;;;;;;3.00;1.75;;;;;;;;5078676;28;45273;-71
2023/01/07 06:06:51;;;;;;;;;2.50;2.50;;;;;;;;5077629;27;45377;-71
2023/01/07 06:09:16;;;;;;;;;2.00;2.00;;;;;;;;5078348;28;45467;-71
2023/01/07 06:11:42;;;;;;;;;3.25;1.25;;;;;;;;5077878;28;45316;-71
2023/01/07 06:14:07;;;;;;;;;2.25;2.25;;;;;;;;5078528;28;45308;-71
2023/01/07 06:16:32;;;;;;;;;2.50;1.00;;;;;;;;5078512;28;45465;-71
2023/01/07 06:18:57;;;;;;;;;4.00;3.00;;;;;;;;5078062;28;46393;-71
2023/01/07 06:21:23;;;;;;;;;3.00;1.25;;;;;;;;5077505;28;45510;-72
2023/01/07 06:23:48;;;;;;;;;1.00;1.00;;;;;;;;5059190;27;45379;-71
2023/01/07 06:26:13;;;;;;;;;1.00;1.00;;;;;;;;5060207;28;45419;-71
2023/01/07 06:28:38;;;;;;;;;3.00;1.00;;;;;;;;5077612;28;46078;-71
2023/01/07 06:31:03;;;;;;;;;1.75;1.75;;;;;;;;5077518;28;45463;-71
2023/01/07 06:33:29;;;;;;;;;3.00;1.00;;;;;;;;5078081;28;45391;-71
2023/01/07 06:35:54;;;;;;;;;1.75;1.75;;;;;;;;5059811;28;45399;-71
2023/01/07 06:38:19;;;;;;;;;1.00;1.00;;;;;;;;5073576;27;45430;-71
2023/01/07 06:40:44;;;;;;;;;4.00;1.25;;;;;;;;5065622;28;45324;-70
2023/01/07 06:43:09;;;;;;;;;1.25;1.25;;;;;;;;5077719;28;45336;-71
2023/01/07 06:45:35;;;;;;;;;2.50;2.00;;;;;;;;5078186;28;45380;-72
2023/01/07 06:48:00;;;;;;;;;2.00;2.00;;;;;;;;5077459;28;45735;-71
2023/01/07 06:50:25;;;;;;;;;3.00;1.25;;;;;;;;5077848;27;45403;-71
2023/01/07 06:52:51;;;;;;;;;1.00;1.00;;;;;;;;5077889;28;45481;-71
2023/01/07 06:55:16;;;;;;;;;2.25;1.00;;;;;;;;5065749;28;45493;-73
2023/01/07 06:57:41;;;;;;;;;1.00;1.00;;;;;;;;5057208;28;45422;-72
2023/01/07 07:00:07;;;;;;;;;1.50;1.50;;;;;;;;5062407;28;45376;-72
2023/01/07 07:02:32;;;;;;;;;1.00;1.00;;;;;;;;5077666;28;45426;-72
2023/01/07 07:04:57;;;;;;;;;3.00;1.75;;;;;;;;5077027;28;45301;-72
2023/01/07 07:07:22;;;;;;;;;2.75;2.50;;;;;;;;5077226;28;46412;-71
2023/01/07 07:09:49;;;;;;;;;1.00;1.00;;;;;;;;5076902;27;45444;-71
2023/01/07 07:12:15;;;;;;;;;2.50;2.00;;;;;;;;5077183;27;45546;-72
2023/01/07 07:14:40;;;;;;;;;1.00;1.00;;;;;;;;5077716;28;45514;-71
2023/01/07 07:17:05;;;;;;;;;2.00;2.00;;;;;;;;5076435;27;47123;-71
2023/01/07 07:19:30;;;;;;;;;0.25;0.25;;;;;;;;5077049;28;45329;-72
2023/01/07 07:21:56;;;;;;;;;2.00;1.00;;;;;;;;5077161;28;45270;-72
2023/01/07 07:24:21;;;;;;;;;2.00;1.00;;;;;;;;5077380;28;45300;-71
2023/01/07 07:26:46;;;;;;;;;1.75;1.75;;;;;;;;5061904;27;45961;-72
2023/01/07 07:29:11;;;;;;;;;1.00;1.00;;;;;;;;5056565;28;45450;-72
2023/01/07 07:31:36;;;;;;;;;1.50;0.75;;;;;;;;5063567;28;45480;-71
2023/01/07 07:34:03;;;;;;;;;4.00;1.00;;;;;;;;5077363;28;45410;-71
2023/01/07 07:36:28;;;;;;;;;2.00;2.00;;;;;;;;5076606;28;47049;-72
2023/01/07 07:38:53;;;;;;;;;2.00;1.25;;;;;;;;5077168;28;45414;-71
2023/01/07 07:41:18;;;;;;;;;2.00;1.00;;;;;;;;5067186;27;46801;-72
2023/01/07 07:43:44;;;;;;;;;2.00;1.00;;;;;;;;5064839;28;45316;-73
2023/01/07 07:46:09;;;;;;;;;3.00;2.00;;;;;;;;5076852;28;46589;-72
2023/01/07 07:48:34;;;;;;;;;1.25;1.00;;;;;;;;5076863;28;45415;-72
2023/01/07 07:50:59;;;;;;;;;3.00;1.25;;;;;;;;5076845;28;45844;-72
2023/01/07 07:53:25;;;;;;;;;1.75;1.50;;;;;;;;5077084;28;45216;-72
2023/01/07 07:55:52;;;;;;;;;5.50;3.00;;;;;;;;5076816;28;45503;-72
2023/01/07 07:58:17;;;;;;;;;1.00;1.00;;;;;;;;5075247;27;45371;-72
2023/01/07 08:00:42;;;;;;;;;1.75;1.75;;;;;;;;5076460;28;45438;-73
2023/01/07 08:03:07;;;;;;;;;1.00;1.00;;;;;;;;5076918;28;45467;-73
2023/01/07 08:05:32;;;;;;;;;2.00;2.00;;;;;;;;5076273;28;46300;-73
2023/01/07 08:07:58;;;;;;;;;3.25;1.75;;;;;;;;5079461;28;45383;-72
2023/01/07 08:10:24;;;;;;;;;1.50;1.50;;;;;;;;5080157;27;45237;-72
2023/01/07 08:12:50;;;;;;;;;0.25;0.25;;;;;;;;5080099;28;45712;-72
2023/01/07 08:15:15;;;;;;;;;1.00;1.00;;;;;;;;5067832;27;47191;-72
2023/01/07 08:17:41;;;;;;;;;1.75;1.75;;;;;;;;5059522;28;45434;-71
2023/01/07 08:20:07;;;;;;;;;2.00;2.00;;;;;;;;5068787;28;45333;-71
2023/01/07 08:22:32;;;;;;;;;1.00;1.00;;;;;;;;5080181;27;45440;-72
2023/01/07 08:24:57;;;;;;;;;2.00;2.00;;;;;;;;5079845;28;45685;-72
2023/01/07 08:27:23;;;;;;;;;2.00;2.00;;;;;;;;5079912;28;45438;-71
2023/01/07 08:29:48;;;;;;;;;1.00;1.00;;;;;;;;5078263;27;45411;-72
2023/01/07 08:32:13;;;;;;;;;2.00;2.00;;;;;;;;5078029;28;45355;-72
2023/01/07 08:34:38;;;;;;;;;3.75;1.00;;;;;;;;5078648;27;45514;-72
2023/01/07 08:37:04;;;;;;;;;2.00;2.00;;;;;;;;5079608;28;45406;-71
2023/01/07 08:39:29;;;;;;;;;1.00;1.00;;;;;;;;5079346;28;45407;-71
2023/01/07 08:41:54;;;;;;;;;1.75;1.00;;;;;;;;5079820;27;45376;-72
2023/01/07 08:44:19;;;;;;;;;1.25;1.25;;;;;;;;5079609;27;46450;-71
2023/01/07 08:46:44;;;;;;;;;3.50;3.00;;;;;;;;5079234;28;45258;-72
2023/01/07 08:49:10;;;;;;;;;3.00;3.00;;;;;;;;5079812;28;45375;-71
2023/01/07 08:51:35;;;;;;;;;1.50;1.50;;;;;;;;5078730;27;45446;-71
2023/01/07 08:54:00;;;;;;;;;3.00;2.00;;;;;;;;5079349;27;46429;-71
2023/01/07 08:56:25;;;;;;;;;1.00;1.00;;;;;;;;5079302;28;45312;-70
2023/01/07 08:58:51;;;;;;;;;1.00;1.00;;;;;;;;5079195;28;45406;-71
2023/01/07 09:01:16;;;;;;;;;1.00;1.00;;;;;;;;5078998;28;45572;-69
2023/01/07 09:03:41;;;;;;;;;1.00;1.00;;;;;;;;5079179;28;45427;-70
2023/01/07 09:06:06;;;;;;;;;3.75;1.00;;;;;;;;5075558;27;45471;-71
2023/01/07 09:08:32;;;;;;;;;2.00;2.00;;;;;;;;5059323;28;45321;-70
2023/01/07 09:10:57;;;;;;;;;1.25;1.00;;;;;;;;5059059;28;45372;-72
2023/01/07 09:13:22;;;;;;;;;3.50;1.00;;;;;;;;5058907;28;45416;-72
2023/01/07 09:15:47;;;;;;;;;1.00;1.00;;;;;;;;5068500;27;45646;-71
2023/01/07 09:18:12;;;;;;;;;5.75;1.50;;;;;;;;5078865;28;45413;-71
2023/01/07 09:20:38;;;;;;;;;1.00;1.00;;;;;;;;5078222;27;45353;-70
2023/01/07 09:23:03;;;;;;;;;1.75;1.75;;;;;;;;5078807;28;45607;-70
2023/01/07 09:25:28;;;;;;;;;2.00;2.00;;;;;;;;5063896;28;45368;-71
2023/01/07 09:27:53;;;;;;;;;2.50;1.00;;;;;;;;5058665;28;45444;-71
2023/01/07 09:30:18;;;;;;;;;3.00;1.50;;;;;;;;5058352;28;45337;-71
2023/01/07 09:32:44;;;;;;;;;0.50;0.50;;;;;;;;5057844;28;46399;-70
2023/01/07 09:35:09;;;;;;;;;3.00;3.00;;;;;;;;5058489;28;45359;-71
2023/01/07 09:37:35;;;;;;;;;2.25;2.25;;;;;;;;5058031;28;45373;-70
2023/01/07 09:40:00;;;;;;;;;4.75;3.25;;;;;;;;5058683;28;45423;-71
2023/01/07 09:42:44;;;;;;;;;3.00;3.00;;;;;;;;5069202;27;46287;-71
2023/01/07 09:45:17;;;;;;;;;3.00;2.75;;;;;;;;5077223;28;45438;-72
2023/01/07 09:47:44;;;;;;;;;4.75;2.25;;;;;;;;5057897;28;45610;-68
2023/01/07 09:50:13;;;;;;;;;4.00;2.75;;;;;;;;5058669;28;45374;-73
2023/01/07 09:52:45;;;;;;;;;2.00;2.00;;;;;;;;5061157;28;45875;-75
2023/01/07 09:55:16;;;;;;;;;34.67;29.33;;;;;;;;5073338;27;45394;-68
2023/01/07 09:57:41;;;;;;;;;6.00;5.00;;;;;;;;5075703;28;46614;-69
2023/01/07 10:00:15;;;;;;;;;5.00;4.00;;;;;;;;5076470;27;45595;-70
2023/01/07 10:02:56;;;;;;;;;2.00;2.00;;;;;;;;5075867;28;47392;-69
2023/01/07 10:05:35;;;;;;;;;5.50;5.50;;;;;;;;5074414;28;45451;-69
2023/01/07 10:08:03;;;;;;;;;2.00;1.75;;;;;;;;5073662;28;45781;-68
2023/01/07 10:10:38;;;;;;;;;18.00;14.33;;;;;;;;5076570;27;45760;-69
2023/01/07 10:13:16;;;;;;;;;3.25;3.25;;;;;;;;5075075;28;46330;-68
2023/01/07 10:15:54;;;;;;;;;4.00;4.00;;;;;;;;5073349;28;45459;-69
2023/01/07 10:18:30;;;;;;;;;3.75;3.25;;;;;;;;5073633;27;45508;-67
2023/01/07 10:20:58;;;;;;;;;4.00;3.25;;;;;;;;5077164;28;45508;-69
2023/01/07 10:23:29;;;;;;;;;8.00;6.33;;;;;;;;5075963;28;45812;-67
2023/01/07 10:25:55;;;;;;;;;5.00;3.00;;;;;;;;5075518;28;45542;-71
2023/01/07 10:28:24;;;;;;;;;4.00;3.00;;;;;;;;5075991;28;45379;-70
2023/01/07 10:30:52;;;;;;;;;3.00;1.25;;;;;;;;5074630;27;45479;-69
2023/01/07 10:33:25;;;;;;;;;4.25;3.00;;;;;;;;5073078;28;46228;-73
2023/01/07 10:36:00;;;;;;;;;3.50;2.25;;;;;;;;5076118;28;45411;-72
2023/01/07 10:38:28;;;;;;;;;4.00;3.75;;;;;;;;5073538;28;45384;-68
2023/01/07 10:40:59;;;;;;;;;3.50;2.25;;;;;;;;5076302;27;45490;-67
2023/01/07 10:43:46;;;;;;;;;3.25;3.00;;;;;;;;5075917;27;46225;-70
2023/01/07 10:46:30;;;;;;;;;0.50;0.50;;;;;;;;5073547;27;45400;-71
2023/01/07 10:49:06;;;;;;;;;2.25;2.25;;;;;;;;5075688;28;45435;-70
2023/01/07 10:51:31;;;;;;;;;2.50;2.50;;;;;;;;5075915;27;45404;-68
2023/01/07 10:54:12;;;;;;;;;6.25;6.25;;;;;;;;5070017;27;45485;-70
2023/01/07 10:56:40;;;;;;;;;3.00;3.00;;;;;;;;5072840;28;45723;-73
2023/01/07 10:59:10;;;;;;;;;3.50;3.00;;;;;;;;5072076;28;45506;-74
2023/01/07 11:01:37;;;;;;;;;0.00;0.00;;;;;;;;5075081;28;45403;-70
2023/01/07 11:04:03;;;;;;;;;12.33;12.33;;;;;;;;5075791;27;46077;-69
2023/01/07 11:06:46;;;;;;;;;22.33;21.67;;;;;;;;5075019;28;45448;-69
2023/01/07 11:09:14;;;;;;;;;12.00;10.00;;;;;;;;5072684;28;45870;-70
2023/01/07 11:11:40;;;;;;;;;4.75;3.50;;;;;;;;5074128;27;45375;-71
2023/01/07 11:14:12;;;;;;;;;4.25;2.25;;;;;;;;5074407;27;45750;-72
2023/01/07 11:16:42;;;;;;;;;3.00;3.00;;;;;;;;5074212;27;46416;-73
2023/01/07 11:19:08;;;;;;;;;4.00;3.00;;;;;;;;5074724;28;45498;-71
2023/01/07 11:21:38;;;;;;;;;4.00;2.00;;;;;;;;5074655;28;45483;-71
2023/01/07 11:24:26;;;;;;;;;2.00;2.00;;;;;;;;5075941;28;45464;-71
2023/01/07 11:26:57;;;;;;;;;4.00;2.00;;;;;;;;5066457;27;45460;-72
2023/01/07 11:29:24;;;;;;;;;3.50;2.00;;;;;;;;5067213;28;45469;-73
2023/01/07 11:31:52;;;;;;;;;4.75;3.00;;;;;;;;5075892;28;45562;-72
2023/01/07 11:34:26;;;;;;;;;3.25;2.00;;;;;;;;5076047;28;45749;-70
2023/01/07 11:36:51;;;;;;;;;4.50;3.00;;;;;;;;5075527;28;45465;-72
2023/01/07 11:39:19;;;;;;;;;2.00;2.00;;;;;;;;5075574;27;45380;-71
2023/01/07 11:41:52;;;;;;;;;3.00;3.00;;;;;;;;5074654;28;45517;-72
2023/01/07 11:44:17;;;;;;;;;2.00;2.00;;;;;;;;5076060;28;46833;-71
2023/01/07 11:46:43;;;;;;;;;4.00;3.50;;;;;;;;5079509;28;45480;-71
2023/01/07 11:49:17;;;;;;;;;2.75;2.50;;;;;;;;5074208;28;45566;-72
2023/01/07 11:51:43;;;;;;;;;3.25;2.75;;;;;;;;5076904;28;45509;-71
2023/01/07 11:54:18;;;;;;;;;3.00;3.00;;;;;;;;5080108;27;46745;-71
2023/01/07 11:56:43;;;;;;;;;4.00;3.00;;;;;;;;5066680;27;45519;-71
2023/01/07 11:59:14;;;;;;;;;3.50;3.50;;;;;;;;5061298;28;45466;-71
2023/01/07 12:01:44;;;;;;;;;5.50;3.00;;;;;;;;5060184;28;45455;-73
2023/01/07 12:04:15;;;;;;;;;2.50;2.00;;;;;;;;5059855;28;46446;-71
2023/01/07 12:06:43;;;;;;;;;3.00;3.00;;;;;;;;5060595;27;45373;-71
2023/01/07 12:09:25;;;;;;;;;3.50;3.50;;;;;;;;5061805;28;45416;-71
2023/01/07 12:11:52;;;;;;;;;3.25;3.00;;;;;;;;5077722;27;45477;-71
2023/01/07 12:14:30;;;;;;;;;3.00;2.25;;;;;;;;5073742;28;46908;-72
2023/01/07 12:17:05;;;;;;;;;4.00;3.00;;;;;;;;5062584;28;45424;-71
2023/01/07 12:19:46;;;;;;;;;5.00;5.00;;;;;;;;5073918;27;45427;-71
2023/01/07 12:22:25;;;;;;;;;6.75;3.00;;;;;;;;5072655;27;45412;-72
2023/01/07 12:24:53;;;;;;;;;5.00;4.00;;;;;;;;5074779;28;45536;-69
2023/01/07 12:27:29;;;;;;;;;4.00;4.00;;;;;;;;5078929;28;45505;-69
2023/01/07 12:29:54;;;;;;;;;4.00;4.00;;;;;;;;5076825;28;45454;-70
2023/01/07 12:32:38;;;;;;;;;3.00;3.00;;;;;;;;5079781;28;45347;-71
2023/01/07 12:35:10;;;;;;;;;3.00;3.00;;;;;;;;5078779;28;45433;-71
2023/01/07 12:37:42;;;;;;;;;3.25;3.25;;;;;;;;5076376;28;45382;-70
2023/01/07 12:40:19;;;;;;;;;3.25;3.25;;;;;;;;5073148;27;45375;-71
2023/01/07 12:43:16;;;;;;;;;3.00;3.00;;;;;;;;5076539;28;45485;-72
2023/01/07 12:45:46;;;;;;;;;11.00;8.67;;;;;;;;4987695;28;46200;-71
2023/01/07 12:48:17;;;;;;;;;3.50;2.50;;;;;;;;4989835;28;45282;-68
2023/01/07 12:50:44;;;;;;;;;4.00;4.00;;;;;;;;4986978;28;45647;-72
2023/01/07 12:53:26;;;;;;;;;6.00;5.00;;;;;;;;4985694;28;45521;-71
2023/01/07 12:55:55;;;;;;;;;6.00;4.00;;;;;;;;4984001;28;45547;-73
2023/01/07 12:58:26;;;;;;;;;2.75;2.75;;;;;;;;4991191;28;45450;-71
2023/01/07 13:01:10;;;;;;;;;6.00;5.00;;;;;;;;4996717;28;45369;-72
2023/01/07 13:03:54;;;;;;;;;4.50;3.00;;;;;;;;4995133;28;45692;-73
2023/01/07 13:06:24;;;;;;;;;5.25;3.25;;;;;;;;4990845;28;46237;-72
2023/01/07 13:08:49;;;;;;;;;8.00;6.00;;;;;;;;4982567;28;45575;-74
2023/01/07 13:12:41;;;;;;;;;6.33;6.33;;;;;;;;4983338;28;45420;-75
2023/01/07 13:14:04;;;;;;;;;6.25;5.00;;;;;;;;4984936;28;45398;-71
2023/01/07 13:16:29;;;;;;;;;7.25;3.00;;;;;;;;4984016;28;45424;-72
2023/01/07 13:18:55;;;;;;;;;6.50;4.75;;;;;;;;4991242;28;46748;-70
2023/01/07 13:21:20;;;;;;;;;5.50;4.00;;;;;;;;5038572;28;45541;-70
2023/01/07 13:23:54;;;;;;;;;4.75;4.00;;;;;;;;5078349;28;45308;-74
2023/01/07 13:26:38;;;;;;;;;4.50;4.50;;;;;;;;5068494;28;45481;-69
2023/01/07 13:29:03;;;;;;;;;4.50;2.00;;;;;;;;5070848;28;45360;-69
2023/01/07 13:31:58;;;;;;;;;6.25;5.00;;;;;;;;5073817;28;45379;-71
2023/01/07 13:34:40;;;;;;;;;4.00;4.00;;;;;;;;5017690;28;45479;-69
2023/01/07 13:37:15;;;;;;;;;8.25;7.25;;;;;;;;5019927;28;46454;-68
2023/01/07 13:39:52;;;;;;;;;7.50;4.00;;;;;;;;5021268;28;45535;-69
2023/01/07 13:42:18;;;;;;;;;4.50;3.00;;;;;;;;5020053;28;45521;-70
2023/01/07 13:44:46;;;;;;;;;3.75;3.75;;;;;;;;5024693;28;45442;-70
2023/01/07 13:47:13;;;;;;;;;3.50;3.50;;;;;;;;5023940;28;45792;-69
2023/01/07 13:49:39;;;;;;;;;5.00;3.75;;;;;;;;5021779;28;45521;-71
2023/01/07 13:52:31;;;;;;;;;5.25;4.75;;;;;;;;5015434;28;45848;-70
2023/01/07 13:54:58;;;;;;;;;8.25;5.25;;;;;;;;5009040;28;45555;-68
2023/01/07 13:57:23;;;;;;;;;4.00;4.00;;;;;;;;5015995;28;46440;-72
2023/01/07 13:59:53;;;;;;;;;5.00;3.00;;;;;;;;5035298;28;45529;-68
2023/01/07 14:02:20;;;;;;;;;6.50;6.25;;;;;;;;5021167;28;45699;-67
2023/01/07 14:04:46;;;;;;;;;7.00;6.00;;;;;;;;5014066;28;45469;-67
2023/01/07 14:07:12;;;;;;;;;7.50;5.50;;;;;;;;5016130;28;45863;-79
2023/01/07 14:09:38;;;;;;;;;4.00;3.75;;;;;;;;5014285;28;45480;-68
2023/01/07 14:12:16;;;;;;;;;5.00;4.00;;;;;;;;5077152;28;45430;-68
2023/01/07 14:15:02;;;;;;;;;18.33;14.67;;;;;;;;5077765;28;45365;-68
2023/01/07 14:17:44;;;;;;;;;3.50;3.50;;;;;;;;5077266;28;45639;-68
2023/01/07 14:20:16;;;;;;;;;4.00;3.00;;;;;;;;5077247;28;45439;-69
2023/01/07 14:22:56;;;;;;;;;5.25;5.25;;;;;;;;5057936;28;45325;-68
2023/01/07 14:25:33;;;;;;;;;4.75;3.25;;;;;;;;5057533;28;45514;-67
2023/01/07 14:27:58;;;;;;;;;15.00;12.00;;;;;;;;5066057;27;46351;-72
2023/01/07 14:30:33;;;;;;;;;5.00;5.00;;;;;;;;5076797;28;45925;-67
2023/01/07 14:33:02;;;;;;;;;5.50;4.00;;;;;;;;5059180;28;45416;-67
2023/01/07 14:35:39;;;;;;;;;5.50;4.00;;;;;;;;5077247;28;45543;-68
2023/01/07 14:38:23;;;;;;;;;6.25;3.75;;;;;;;;5067169;28;47037;-71
2023/01/07 14:41:00;;;;;;;;;6.50;4.00;;;;;;;;5056446;28;45688;-67
2023/01/07 14:43:46;;;;;;;;;9.00;8.50;;;;;;;;5056710;28;45450;-68
2023/01/07 14:46:20;;;;;;;;;5.75;5.75;;;;;;;;5057171;28;45257;-68
2023/01/07 14:49:06;;;;;;;;;7.00;5.00;;;;;;;;5056384;28;45452;-68
2023/01/07 14:51:31;;;;;;;;;4.00;4.00;;;;;;;;5056337;28;45334;-68